Time;durP1;ratioP1;P1;durP2;ratioP2;P2;SDS_P1;SDS_P2;PMS_P1;PMS_P2;Temp;Humidity;BMP_temperature;BMP_pressure;BME280_temperature;BME280_humidity;BME280_pressure;Samples;Min_cycle;Max_cycle;Signal;HPM_P1;HPM_P2
2022/01/18 00:01:13;;;;;;;41.28;22.58;;;2.30;84.50;;;;;;5035314;28;20068;-86
2022/01/18 00:03:40;;;;;;;35.78;23.42;;;2.30;84.50;;;;;;5036054;28;20054;-86
2022/01/18 00:06:07;;;;;;;32.10;22.00;;;2.30;84.50;;;;;;5035791;28;20429;-86
2022/01/18 00:08:34;;;;;;;40.20;24.13;;;2.30;84.50;;;;;;5035823;28;20049;-86
2022/01/18 00:11:02;;;;;;;30.73;21.73;;;2.40;84.60;;;;;;5036032;28;20205;-86
2022/01/18 00:18:35;;;;;;;37.92;23.45;;;2.40;84.60;;;;;;5035872;28;20187;-86
2022/01/18 00:23:55;;;;;;;43.78;23.88;;;2.40;84.70;;;;;;5035615;28;20056;-88
2022/01/18 00:26:25;;;;;;;41.13;24.80;;;2.40;84.70;;;;;;5035486;28;20041;-87
2022/01/18 00:28:57;;;;;;;48.30;25.50;;;2.40;84.70;;;;;;5036697;28;20072;-86
2022/01/18 00:36:41;;;;;;;36.22;24.00;;;2.50;84.80;;;;;;5035406;28;20104;-86
2022/01/18 00:39:10;;;;;;;44.80;26.92;;;2.50;84.80;;;;;;5035258;28;20052;-86
2022/01/18 00:41:39;;;;;;;35.40;24.38;;;2.50;84.80;;;;;;5036724;28;20049;-86
2022/01/18 00:44:08;;;;;;;45.55;26.73;;;2.50;84.80;;;;;;5034002;28;20045;-86
2022/01/18 00:46:36;;;;;;;40.58;26.05;;;2.50;84.80;;;;;;5035423;28;20124;-86
2022/01/18 00:49:04;;;;;;;41.15;25.15;;;2.60;84.90;;;;;;5034376;28;20072;-86
2022/01/18 00:51:36;;;;;;;49.88;26.42;;;2.60;84.90;;;;;;5035010;28;20054;-86
2022/01/18 00:54:06;;;;;;;44.80;26.67;;;2.60;84.90;;;;;;5034898;28;20055;-86
2022/01/18 00:56:33;;;;;;;38.05;25.42;;;2.60;85.00;;;;;;5034751;28;20050;-85
2022/01/18 00:59:00;;;;;;;45.38;25.83;;;2.60;84.90;;;;;;5036544;28;20133;-86
2022/01/18 01:01:29;;;;;;;41.40;26.17;;;2.60;85.00;;;;;;5035125;28;20056;-86
2022/01/18 01:04:01;;;;;;;44.78;27.17;;;2.70;85.00;;;;;;5034074;28;20052;-86
2022/01/18 01:06:30;;;;;;;39.08;26.08;;;2.70;85.00;;;;;;5034563;28;20520;-86
2022/01/18 01:08:57;;;;;;;45.45;27.33;;;2.70;85.00;;;;;;5034473;28;20437;-85
2022/01/18 01:11:25;;;;;;;55.33;30.40;;;2.70;85.00;;;;;;5034386;28;20041;-87
2022/01/18 01:13:56;;;;;;;46.22;29.92;;;2.70;85.00;;;;;;5033638;28;20068;-86
2022/01/18 01:19:23;;;;;;;52.95;30.92;;;2.70;85.00;;;;;;5033060;28;20111;-86
2022/01/18 01:35:46;;;;;;;60.35;33.95;;;2.80;85.10;;;;;;5034215;28;20391;-84
2022/01/18 01:44:01;;;;;;;57.35;32.58;;;2.80;85.20;;;;;;5019338;28;20537;-85
2022/01/18 01:46:30;;;;;;;69.22;34.05;;;2.80;85.20;;;;;;5034258;28;20422;-85
2022/01/18 01:48:59;;;;;;;66.97;32.55;;;2.80;85.20;;;;;;5033344;28;20103;-85
2022/01/18 01:51:30;;;;;;;54.78;31.05;;;2.90;85.20;;;;;;5033893;28;20041;-85
2022/01/18 01:54:04;;;;;;;64.35;33.80;;;2.90;85.20;;;;;;5033891;28;20045;-84
2022/01/18 01:56:31;;;;;;;56.50;33.55;;;2.90;85.20;;;;;;5033533;28;20056;-84
2022/01/18 01:58:59;;;;;;;66.43;36.47;;;2.90;85.30;;;;;;5033911;28;20064;-84
2022/01/18 02:01:39;;;;;;;68.60;35.95;;;2.90;85.30;;;;;;5033831;28;20041;-86
2022/01/18 02:04:06;;;;;;;61.15;34.45;;;2.90;85.30;;;;;;5028840;28;20101;-85
2022/01/18 02:06:33;;;;;;;65.43;35.38;;;2.90;85.30;;;;;;5033661;28;20048;-84
2022/01/18 02:09:00;;;;;;;64.18;35.95;;;2.90;85.30;;;;;;5033316;28;20057;-85
2022/01/18 02:11:27;;;;;;;62.08;35.25;;;2.90;85.30;;;;;;5033590;28;20042;-87
2022/01/18 02:13:56;;;;;;;59.45;34.85;;;2.90;85.30;;;;;;5065737;28;20049;-87
2022/01/18 02:21:54;;;;;;;53.20;34.83;;;2.90;85.30;;;;;;5033036;28;20049;-88
2022/01/18 02:24:23;;;;;;;65.25;35.75;;;3.00;85.30;;;;;;5033147;28;20053;-87
2022/01/18 02:26:51;;;;;;;67.10;34.35;;;3.00;85.30;;;;;;5033307;28;20053;-87
2022/01/18 02:29:19;;;;;;;60.13;34.25;;;3.00;85.40;;;;;;5033428;28;20041;-87
2022/01/18 02:31:47;;;;;;;52.65;32.88;;;3.00;85.40;;;;;;5033393;28;20099;-87
2022/01/18 02:34:19;;;;;;;63.25;34.85;;;3.00;85.40;;;;;;5031161;28;20107;-87
2022/01/18 02:36:46;;;;;;;59.45;32.50;;;3.00;85.40;;;;;;5034326;28;20045;-87
2022/01/18 02:39:19;;;;;;;57.05;33.78;;;3.00;85.40;;;;;;5032749;28;20494;-87
2022/01/18 02:41:53;;;;;;;55.63;32.10;;;3.00;85.40;;;;;;5033115;28;20061;-87
2022/01/18 02:44:20;;;;;;;69.32;33.30;;;3.00;85.40;;;;;;5033041;28;20509;-88
2022/01/18 02:46:47;;;;;;;53.50;32.40;;;3.00;85.40;;;;;;5033213;28;20037;-87
2022/01/18 02:49:14;;;;;;;59.95;32.40;;;3.00;85.40;;;;;;5032251;28;20056;-87
2022/01/18 02:51:41;;;;;;;61.75;33.65;;;3.10;85.40;;;;;;5033449;28;20056;-87
2022/01/18 02:54:11;;;;;;;55.35;31.75;;;3.10;85.50;;;;;;5032608;28;20055;-86
2022/01/18 02:56:46;;;;;;;54.20;31.27;;;3.10;85.50;;;;;;5031730;28;20046;-86
2022/01/18 02:59:19;;;;;;;54.28;31.95;;;3.10;85.40;;;;;;5032851;28;20055;-87
2022/01/18 03:04:42;;;;;;;64.05;32.75;;;3.10;85.40;;;;;;5033050;28;20046;-87
2022/01/18 03:07:10;;;;;;;57.92;31.75;;;3.20;85.50;;;;;;5027991;28;20417;-87
2022/01/18 03:09:37;;;;;;;57.60;32.55;;;3.20;85.50;;;;;;5032265;28;20057;-87
2022/01/18 03:12:07;;;;;;;48.85;31.17;;;3.20;85.50;;;;;;5032840;28;20045;-86
2022/01/18 03:14:35;;;;;;;52.38;31.33;;;3.20;85.50;;;;;;5034147;28;20506;-87
2022/01/18 03:17:03;;;;;;;51.35;31.33;;;3.20;85.50;;;;;;5033023;28;20045;-87
2022/01/18 03:19:30;;;;;;;57.65;32.85;;;3.20;85.50;;;;;;5032741;28;20045;-86
2022/01/18 03:21:58;;;;;;;53.70;31.05;;;3.20;85.50;;;;;;5030509;28;20049;-87
2022/01/18 03:29:38;;;;;;;57.33;30.63;;;3.30;85.60;;;;;;5032594;28;20051;-87
2022/01/18 03:32:06;;;;;;;57.45;30.50;;;3.20;85.60;;;;;;5032880;28;20056;-87
2022/01/18 03:34:33;;;;;;;56.33;29.65;;;3.20;85.50;;;;;;5032674;28;20049;-87
2022/01/18 03:37:01;;;;;;;50.58;29.02;;;3.30;85.60;;;;;;5031601;28;20056;-86
2022/01/18 03:39:28;;;;;;;47.20;29.30;;;3.30;85.60;;;;;;5032535;28;20056;-87
2022/01/18 03:42:04;;;;;;;47.47;29.65;;;3.30;85.60;;;;;;5032450;28;20053;-87
2022/01/18 03:44:32;;;;;;;47.70;29.63;;;3.30;85.60;;;;;;5032595;28;20192;-88
2022/01/18 03:46:59;;;;;;;46.58;28.45;;;3.30;85.60;;;;;;5032804;28;20191;-87
2022/01/18 03:49:27;;;;;;;47.53;27.90;;;3.30;85.60;;;;;;5031977;28;20056;-87
2022/01/18 03:51:55;;;;;;;52.15;29.67;;;3.30;85.60;;;;;;5031603;28;20045;-87
2022/01/18 03:54:23;;;;;;;47.28;27.55;;;3.30;85.50;;;;;;5032288;28;20054;-87
2022/01/18 03:56:51;;;;;;;47.13;28.30;;;3.30;85.50;;;;;;5033375;28;20048;-87
2022/01/18 03:59:18;;;;;;;43.58;26.52;;;3.30;85.50;;;;;;5036026;28;20045;-87
2022/01/18 04:01:45;;;;;;;53.50;28.42;;;3.30;85.50;;;;;;5036133;28;20502;-87
2022/01/18 04:04:13;;;;;;;45.55;26.10;;;3.30;85.50;;;;;;5035068;28;20049;-87
2022/01/18 04:06:40;;;;;;;40.45;26.30;;;3.30;85.40;;;;;;5035729;28;20054;-87
2022/01/18 04:09:07;;;;;;;43.28;25.38;;;3.30;85.40;;;;;;5035601;28;20053;-87
2022/01/18 04:11:34;;;;;;;44.15;25.67;;;3.30;85.40;;;;;;5035810;28;20515;-87
2022/01/18 04:14:01;;;;;;;45.50;26.10;;;3.30;85.40;;;;;;5037552;28;20056;-87
2022/01/18 04:16:28;;;;;;;44.17;24.70;;;3.20;85.30;;;;;;5035923;28;20132;-87
2022/01/18 04:19:22;;;;;;;53.78;27.45;;;3.20;85.30;;;;;;5034905;28;20491;-88
2022/01/18 04:25:52;;;;;;;44.33;25.48;;;3.20;85.30;;;;;;5035636;28;20445;-88
2022/01/18 04:27:21;;;;;;;43.97;23.98;;;3.20;85.20;;;;;;5037269;28;20045;-87
2022/01/18 04:29:48;;;;;;;40.60;25.95;;;3.10;85.20;;;;;;5035449;28;20045;-88
2022/01/18 04:32:15;;;;;;;39.72;25.45;;;3.10;85.20;;;;;;5035485;28;20597;-88
2022/01/18 04:34:42;;;;;;;42.95;23.98;;;3.10;85.20;;;;;;5035195;28;20056;-87
2022/01/18 04:37:14;;;;;;;45.30;24.77;;;3.10;85.20;;;;;;5034653;28;20045;-88
2022/01/18 04:39:43;;;;;;;39.97;24.35;;;3.00;85.10;;;;;;5035555;28;20505;-88
2022/01/18 04:42:18;;;;;;;43.58;23.73;;;3.00;85.10;;;;;;5035234;28;20041;-87
2022/01/18 04:50:16;;;;;;;42.03;23.98;;;2.90;85.10;;;;;;5034890;28;20049;-88
2022/01/18 04:52:43;;;;;;;45.03;25.35;;;2.90;85.10;;;;;;5035116;28;20045;-87
2022/01/18 04:55:10;;;;;;;48.40;27.05;;;2.90;85.10;;;;;;5034151;28;20061;-87
2022/01/18 04:57:53;;;;;;;39.50;24.52;;;2.90;85.20;;;;;;5033885;28;20046;-88
2022/01/18 05:00:21;;;;;;;49.60;25.83;;;2.90;85.20;;;;;;5034753;28;20136;-87
2022/01/18 05:02:48;;;;;;;47.63;25.48;;;2.90;85.20;;;;;;5034861;28;20046;-87
2022/01/18 05:05:24;;;;;;;45.58;25.00;;;2.80;85.20;;;;;;5066704;28;20048;-87
2022/01/18 05:07:58;;;;;;;44.45;24.88;;;2.80;85.20;;;;;;5033911;28;20519;-87
2022/01/18 05:10:28;;;;;;;43.13;26.30;;;2.80;85.20;;;;;;5034680;28;20068;-88
2022/01/18 05:12:58;;;;;;;39.88;25.13;;;2.80;85.20;;;;;;5034095;28;20041;-87
2022/01/18 05:23:25;;;;;;;41.83;24.50;;;2.70;85.20;;;;;;5012488;28;20056;-87
2022/01/18 05:25:53;;;;;;;39.78;24.30;;;2.70;85.20;;;;;;5012549;28;20048;-87
2022/01/18 05:28:20;;;;;;;41.50;25.10;;;2.70;85.20;;;;;;5012165;28;20553;-88
2022/01/18 05:30:47;;;;;;;44.30;25.13;;;2.70;85.20;;;;;;5011741;28;20471;-88
2022/01/18 05:33:14;;;;;;;41.97;23.95;;;2.60;85.20;;;;;;5012060;28;20050;-87
2022/01/18 05:35:41;;;;;;;44.17;24.77;;;2.60;85.20;;;;;;5012262;28;20514;-88
2022/01/18 05:38:08;;;;;;;39.42;23.63;;;2.60;85.20;;;;;;5012271;28;20466;-87
2022/01/18 05:40:37;;;;;;;40.90;24.13;;;2.60;85.10;;;;;;5012303;28;20057;-87
2022/01/18 05:43:05;;;;;;;45.13;26.00;;;2.60;85.20;;;;;;5007248;28;20081;-87
2022/01/18 05:45:33;;;;;;;39.67;23.95;;;2.50;85.10;;;;;;5012106;28;20058;-88
2022/01/18 05:48:00;;;;;;;40.90;24.23;;;2.50;85.10;;;;;;5011780;28;20423;-87
2022/01/18 05:50:27;;;;;;;42.20;23.85;;;2.50;85.10;;;;;;5011960;28;20522;-87
2022/01/18 05:52:54;;;;;;;40.80;23.92;;;2.50;85.20;;;;;;5012083;28;20042;-88
2022/01/18 05:55:21;;;;;;;41.83;23.70;;;2.50;85.10;;;;;;5011823;28;20053;-87
2022/01/18 05:57:48;;;;;;;35.95;22.23;;;2.50;85.10;;;;;;5021995;28;20046;-87
2022/01/18 06:00:22;;;;;;;40.85;24.55;;;2.50;85.10;;;;;;5035541;28;20045;-87
2022/01/18 06:08:03;;;;;;;41.92;24.88;;;2.50;85.10;;;;;;5033467;28;20540;-87
2022/01/18 06:10:30;;;;;;;48.50;26.65;;;2.50;85.10;;;;;;5033762;28;20059;-87
2022/01/18 06:13:00;;;;;;;40.45;25.40;;;2.40;85.10;;;;;;5032919;28;20054;-87
2022/01/18 06:15:28;;;;;;;41.45;24.00;;;2.40;85.10;;;;;;5034822;28;20056;-87
2022/01/18 06:17:55;;;;;;;43.22;25.77;;;2.40;85.10;;;;;;5035115;28;20056;-87
2022/01/18 06:20:23;;;;;;;38.90;25.23;;;2.40;85.10;;;;;;5033112;28;20052;-87
2022/01/18 06:22:53;;;;;;;41.22;25.58;;;2.40;85.10;;;;;;5033451;28;20037;-88
2022/01/18 06:25:21;;;;;;;40.58;25.73;;;2.40;85.20;;;;;;5033132;28;20050;-87
2022/01/18 06:27:50;;;;;;;41.60;25.02;;;2.40;85.20;;;;;;5032575;28;20083;-87
2022/01/18 06:30:18;;;;;;;44.67;26.05;;;2.40;85.20;;;;;;5032934;28;20502;-87
2022/01/18 06:32:46;;;;;;;44.58;25.45;;;2.40;85.20;;;;;;5033223;28;20041;-88
2022/01/18 06:35:14;;;;;;;41.35;24.67;;;2.40;85.20;;;;;;5033240;28;20124;-87
2022/01/18 06:37:42;;;;;;;40.38;25.90;;;2.40;85.20;;;;;;5033306;28;20043;-87
2022/01/18 06:40:10;;;;;;;38.78;25.10;;;2.40;85.20;;;;;;5032305;28;20129;-87
2022/01/18 06:42:38;;;;;;;39.83;25.02;;;2.40;85.20;;;;;;5032965;28;20046;-87
2022/01/18 06:45:06;;;;;;;41.03;25.73;;;2.40;85.20;;;;;;5032706;28;20068;-87
2022/01/18 06:47:34;;;;;;;42.13;26.02;;;2.40;85.20;;;;;;5033000;28;20042;-86
2022/01/18 06:50:01;;;;;;;39.40;25.20;;;2.40;85.30;;;;;;5033266;28;20045;-87
2022/01/18 06:52:28;;;;;;;43.25;25.45;;;2.40;85.30;;;;;;5033158;28;20406;-87
2022/01/18 06:54:55;;;;;;;46.78;27.33;;;2.40;85.30;;;;;;5032156;28;20049;-87
2022/01/18 06:57:22;;;;;;;43.03;26.33;;;2.40;85.30;;;;;;5032902;28;20049;-88
2022/01/18 06:59:50;;;;;;;43.13;27.02;;;2.40;85.30;;;;;;5032625;28;20120;-86
2022/01/18 07:02:17;;;;;;;54.22;30.60;;;2.40;85.30;;;;;;5032936;28;20051;-86
2022/01/18 07:04:44;;;;;;;47.95;26.45;;;2.40;85.30;;;;;;5033271;28;20052;-87
2022/01/18 07:07:13;;;;;;;62.13;36.60;;;2.40;85.30;;;;;;5032157;28;20072;-87
2022/01/18 07:09:40;;;;;;;70.38;38.75;;;2.50;85.30;;;;;;5032795;28;20075;-87
2022/01/18 07:12:10;;;;;;;62.03;35.25;;;2.40;85.30;;;;;;5064646;28;20049;-87
2022/01/18 07:14:39;;;;;;;52.42;31.20;;;2.50;85.40;;;;;;5032328;28;20052;-88
2022/01/18 07:17:06;;;;;;;57.50;33.67;;;2.50;85.40;;;;;;5031816;28;20437;-87
2022/01/18 07:19:35;;;;;;;48.47;30.95;;;2.50;85.40;;;;;;5032875;28;20088;-87
2022/01/18 07:22:03;;;;;;;54.28;33.03;;;2.50;85.40;;;;;;5032102;28;20059;-88
2022/01/18 07:24:44;;;;;;;58.85;33.20;;;2.50;85.40;;;;;;5032782;28;20056;-87
2022/01/18 07:27:14;;;;;;;54.20;32.97;;;2.50;85.40;;;;;;5032664;28;20042;-87
2022/01/18 07:29:43;;;;;;;70.30;35.40;;;2.50;85.40;;;;;;5032361;28;20052;-86
2022/01/18 07:32:11;;;;;;;54.53;31.98;;;2.50;85.40;;;;;;5032059;28;20056;-86
2022/01/18 07:34:51;;;;;;;51.78;30.85;;;2.50;85.40;;;;;;5035401;28;20069;-87
2022/01/18 07:37:19;;;;;;;54.63;31.95;;;2.50;85.40;;;;;;5032376;28;20052;-86
2022/01/18 07:39:48;;;;;;;52.42;32.08;;;2.50;85.40;;;;;;5035336;28;20502;-87
2022/01/18 07:42:23;;;;;;;56.53;32.90;;;2.50;85.40;;;;;;5035946;28;20095;-86
2022/01/18 07:44:52;;;;;;;55.72;32.60;;;2.50;85.50;;;;;;5035760;28;20529;-87
2022/01/18 07:47:19;;;;;;;52.92;31.92;;;2.50;85.50;;;;;;5035946;28;20048;-88
2022/01/18 07:49:47;;;;;;;51.67;31.67;;;2.50;85.50;;;;;;5035942;28;20049;-87
2022/01/18 07:52:16;;;;;;;50.25;30.77;;;2.50;85.50;;;;;;5035674;28;20132;-86
2022/01/18 07:54:44;;;;;;;47.40;30.67;;;2.50;85.50;;;;;;5036253;28;20050;-87
2022/01/18 07:57:13;;;;;;;50.20;30.67;;;2.50;85.50;;;;;;5035676;28;20058;-86
2022/01/18 07:59:40;;;;;;;46.50;30.45;;;2.50;85.50;;;;;;5035395;28;20050;-86
2022/01/18 08:02:08;;;;;;;47.83;28.40;;;2.50;85.50;;;;;;5034626;28;20052;-86
2022/01/18 08:04:35;;;;;;;47.30;30.23;;;2.60;85.60;;;;;;5035863;28;20083;-86
2022/01/18 08:07:03;;;;;;;46.65;29.25;;;2.60;85.50;;;;;;5034608;28;20438;-86
2022/01/18 08:09:30;;;;;;;47.25;29.05;;;2.60;85.60;;;;;;5035556;28;20052;-86
2022/01/18 08:11:57;;;;;;;49.65;28.85;;;2.60;85.60;;;;;;5067154;28;20052;-85
2022/01/18 08:14:26;;;;;;;49.35;30.83;;;2.60;85.60;;;;;;5035173;28;20049;-87
2022/01/18 08:17:00;;;;;;;45.28;29.17;;;2.60;85.50;;;;;;5035496;28;20509;-86
2022/01/18 08:19:35;;;;;;;50.80;29.80;;;2.60;85.60;;;;;;5035556;28;20050;-86
2022/01/18 08:22:08;;;;;;;51.38;29.45;;;2.60;85.60;;;;;;5029920;28;20063;-85
2022/01/18 08:24:37;;;;;;;48.75;27.95;;;2.60;85.60;;;;;;5036954;28;20128;-86
2022/01/18 08:27:04;;;;;;;43.35;28.23;;;2.70;85.60;;;;;;5034803;28;21224;-86
2022/01/18 08:29:31;;;;;;;53.78;31.45;;;2.70;85.60;;;;;;5034810;28;20049;-86
2022/01/18 08:32:14;;;;;;;48.85;29.52;;;2.70;85.60;;;;;;5035092;28;20108;-86
2022/01/18 08:34:41;;;;;;;59.50;31.33;;;2.70;85.60;;;;;;5034761;28;20585;-86
2022/01/18 08:37:09;;;;;;;47.28;29.77;;;2.70;85.60;;;;;;5034393;28;20092;-86
2022/01/18 08:39:36;;;;;;;53.40;30.70;;;2.70;85.70;;;;;;5036435;28;20666;-86
2022/01/18 08:42:04;;;;;;;49.03;30.05;;;2.70;85.70;;;;;;5034429;28;20045;-86
2022/01/18 08:44:31;;;;;;;52.65;30.70;;;2.70;85.70;;;;;;5034736;28;20399;-86
2022/01/18 08:46:58;;;;;;;51.53;30.92;;;2.70;85.70;;;;;;5035122;28;20042;-86
2022/01/18 08:49:25;;;;;;;49.30;30.15;;;2.80;85.70;;;;;;5034858;28;20128;-86
2022/01/18 08:51:52;;;;;;;56.45;32.28;;;2.80;85.80;;;;;;5033850;28;20047;-86
2022/01/18 08:54:20;;;;;;;53.20;30.75;;;2.80;85.80;;;;;;5034561;28;20505;-86
2022/01/18 08:56:47;;;;;;;50.38;30.55;;;2.80;85.80;;;;;;5034373;28;20045;-87
2022/01/18 08:59:21;;;;;;;54.58;32.28;;;2.80;85.80;;;;;;5034683;28;20045;-86
2022/01/18 09:01:48;;;;;;;47.03;29.05;;;2.90;85.80;;;;;;5034671;28;20141;-86
2022/01/18 09:04:15;;;;;;;54.55;28.88;;;2.90;85.90;;;;;;5033656;28;20124;-85
2022/01/18 09:06:46;;;;;;;51.75;30.75;;;2.90;85.90;;;;;;5034925;28;20133;-85
2022/01/18 09:09:16;;;;;;;57.53;31.48;;;2.90;85.90;;;;;;5034323;28;20053;-85
2022/01/18 09:11:45;;;;;;;56.05;33.17;;;2.90;85.90;;;;;;5033594;28;20136;-85
2022/01/18 09:14:14;;;;;;;49.90;30.27;;;2.90;85.90;;;;;;5034406;28;20473;-85
2022/01/18 09:16:41;;;;;;;47.13;30.33;;;3.00;85.90;;;;;;5034314;28;20501;-85
2022/01/18 09:19:09;;;;;;;46.83;29.02;;;3.00;85.90;;;;;;5033165;28;20045;-85
2022/01/18 09:21:36;;;;;;;49.58;30.23;;;3.00;86.00;;;;;;5034185;28;20049;-85
2022/01/18 09:24:04;;;;;;;51.42;30.33;;;3.10;86.00;;;;;;5033690;28;20044;-85
2022/01/18 09:26:31;;;;;;;48.28;29.33;;;3.10;86.00;;;;;;5033690;28;20425;-85
2022/01/18 09:28:58;;;;;;;49.78;30.30;;;3.10;86.00;;;;;;5034050;28;20038;-86
2022/01/18 09:31:25;;;;;;;50.03;30.27;;;3.20;86.00;;;;;;5033928;28;20494;-84
2022/01/18 09:33:52;;;;;;;49.67;29.90;;;3.20;86.00;;;;;;5033061;28;20880;-85
2022/01/18 09:36:19;;;;;;;54.00;30.00;;;3.20;86.00;;;;;;5035047;28;20422;-85
2022/01/18 09:38:46;;;;;;;52.83;31.02;;;3.30;86.00;;;;;;5033480;28;20517;-85
2022/01/18 09:41:17;;;;;;;49.17;30.50;;;3.30;86.00;;;;;;5034007;28;20104;-85
2022/01/18 09:43:47;;;;;;;58.20;31.60;;;3.40;86.00;;;;;;5033864;28;20115;-85
2022/01/18 09:46:15;;;;;;;54.80;31.95;;;3.40;86.00;;;;;;5032892;28;20088;-85
2022/01/18 09:48:42;;;;;;;53.10;31.92;;;3.40;86.00;;;;;;5033845;28;20469;-85
2022/01/18 09:51:09;;;;;;;55.17;29.15;;;3.50;86.00;;;;;;5033771;28;20114;-85
2022/01/18 09:53:36;;;;;;;49.03;29.50;;;3.50;86.00;;;;;;5033152;28;20041;-85
2022/01/18 09:56:03;;;;;;;52.60;32.75;;;3.50;86.00;;;;;;5032925;28;20127;-85
2022/01/18 09:58:30;;;;;;;65.85;33.65;;;3.60;86.00;;;;;;5033371;28;20464;-85
2022/01/18 10:00:58;;;;;;;66.65;33.55;;;3.70;86.00;;;;;;5032563;28;20421;-85
2022/01/18 10:03:33;;;;;;;60.15;34.20;;;3.70;86.00;;;;;;5033180;28;20077;-84
2022/01/18 10:06:02;;;;;;;73.57;34.03;;;3.80;86.00;;;;;;5033404;28;20457;-85
2022/01/18 10:08:36;;;;;;;66.07;33.22;;;3.80;86.00;;;;;;5032835;28;20049;-85
2022/01/18 10:11:15;;;;;;;67.15;33.35;;;3.90;86.00;;;;;;5032975;28;20045;-85
2022/01/18 10:13:46;;;;;;;66.70;34.03;;;3.90;86.00;;;;;;5018241;28;20144;-85
2022/01/18 10:16:15;;;;;;;66.20;32.88;;;3.90;86.00;;;;;;5032353;28;20421;-85
2022/01/18 10:18:50;;;;;;;76.78;34.33;;;4.00;85.90;;;;;;5033241;28;20050;-84
2022/01/18 10:21:28;;;;;;;65.43;32.42;;;4.00;85.90;;;;;;5033289;28;20136;-85
2022/01/18 10:24:10;;;;;;;65.03;32.45;;;4.10;85.90;;;;;;5031801;28;20052;-85
2022/01/18 10:26:41;;;;;;;67.63;32.47;;;4.20;85.80;;;;;;5032834;28;20052;-85
2022/01/18 10:29:10;;;;;;;82.40;32.75;;;4.20;85.80;;;;;;5033154;28;20049;-85
2022/01/18 10:31:57;;;;;;;72.40;32.25;;;4.20;85.80;;;;;;5033038;28;20049;-85
2022/01/18 10:37:17;;;;;;;72.03;32.25;;;4.30;85.70;;;;;;5031719;28;20107;-85
2022/01/18 10:39:57;;;;;;;70.20;32.05;;;4.30;85.70;;;;;;5032632;28;20129;-85
2022/01/18 10:42:36;;;;;;;75.25;33.10;;;4.40;85.70;;;;;;5064395;28;20045;-85
2022/01/18 10:45:09;;;;;;;79.00;33.35;;;4.40;85.70;;;;;;5032568;28;20046;-86
2022/01/18 10:47:37;;;;;;;66.65;32.75;;;4.40;85.60;;;;;;5032740;28;20051;-85
2022/01/18 10:50:13;;;;;;;87.18;34.55;;;4.40;85.60;;;;;;5033629;28;20042;-86
2022/01/18 10:52:40;;;;;;;61.70;32.97;;;4.50;85.60;;;;;;5018762;28;20049;-85
2022/01/18 10:55:15;;;;;;;54.30;32.13;;;4.50;85.50;;;;;;5027969;28;20498;-90
2022/01/18 10:57:43;;;;;;;75.80;33.17;;;4.50;85.50;;;;;;5032785;28;20068;-87
2022/01/18 11:00:12;;;;;;;64.03;33.70;;;4.50;85.50;;;;;;5032692;28;20465;-87
2022/01/18 11:02:41;;;;;;;69.53;32.88;;;4.50;85.40;;;;;;5032587;28;20051;-87
2022/01/18 11:05:21;;;;;;;72.25;34.67;;;4.60;85.40;;;;;;5034817;28;20051;-87
2022/01/18 11:07:50;;;;;;;72.70;35.45;;;4.60;85.40;;;;;;5021258;28;20045;-87
2022/01/18 11:10:20;;;;;;;80.97;35.28;;;4.60;85.40;;;;;;5036133;28;20056;-87
2022/01/18 11:13:06;;;;;;;89.45;37.58;;;4.70;85.40;;;;;;5036456;28;20054;-88
2022/01/18 11:15:37;;;;;;;74.85;35.00;;;4.70;85.30;;;;;;5036801;28;20506;-87
2022/01/18 11:18:14;;;;;;;75.00;35.53;;;4.80;85.40;;;;;;5036920;28;20056;-87
2022/01/18 11:20:46;;;;;;;75.28;35.55;;;4.80;85.40;;;;;;5036652;28;20055;-87
2022/01/18 11:23:14;;;;;;;73.18;35.25;;;4.90;85.40;;;;;;5036847;28;20051;-87
2022/01/18 11:25:42;;;;;;;73.43;34.72;;;4.90;85.40;;;;;;5037003;28;20045;-88
2022/01/18 11:28:10;;;;;;;77.32;34.53;;;4.90;85.40;;;;;;5036156;28;20433;-89
2022/01/18 11:30:42;;;;;;;70.47;34.15;;;4.90;85.40;;;;;;5036331;28;20053;-87
2022/01/18 11:33:15;;;;;;;81.30;35.22;;;5.00;85.40;;;;;;5036537;28;20049;-88
2022/01/18 11:36:02;;;;;;;72.65;35.45;;;5.00;85.30;;;;;;5036165;28;20052;-88
2022/01/18 11:38:35;;;;;;;68.78;34.95;;;5.10;85.30;;;;;;5036495;28;20045;-88
2022/01/18 11:41:19;;;;;;;66.97;33.67;;;5.20;85.30;;;;;;5036561;28;20568;-87
2022/01/18 11:43:46;;;;;;;64.82;34.30;;;5.20;85.30;;;;;;5021774;28;20046;-88
2022/01/18 11:46:40;;;;;;;65.72;31.67;;;5.20;85.20;;;;;;5035383;28;20498;-88
2022/01/18 11:49:09;;;;;;;62.45;31.48;;;5.30;85.20;;;;;;5026605;28;20054;-87
2022/01/18 11:51:54;;;;;;;61.92;32.03;;;5.30;85.20;;;;;;5037680;28;20049;-88
2022/01/18 11:57:34;;;;;;;56.85;32.15;;;5.40;85.20;;;;;;5037776;28;20052;-89
2022/01/18 12:00:21;;;;;;;65.82;32.22;;;5.40;85.20;;;;;;5036224;28;20045;-88
2022/01/18 12:02:50;;;;;;;62.33;31.42;;;5.50;85.10;;;;;;5067901;28;20056;-88
2022/01/18 12:05:21;;;;;;;57.45;32.45;;;5.50;85.10;;;;;;5035559;28;20417;-88
2022/01/18 12:07:52;;;;;;;58.58;31.63;;;5.50;85.10;;;;;;5035983;28;20744;-89
2022/01/18 12:10:31;;;;;;;64.65;32.78;;;5.50;85.10;;;;;;5035659;28;20120;-87
2022/01/18 12:13:01;;;;;;;59.30;30.83;;;5.60;85.10;;;;;;5034124;28;20089;-87
2022/01/18 12:15:33;;;;;;;58.78;30.88;;;5.70;85.10;;;;;;5035687;28;20060;-86
2022/01/18 12:18:04;;;;;;;60.47;32.72;;;5.70;85.00;;;;;;5031076;28;20049;-86
2022/01/18 12:20:40;;;;;;;56.55;30.90;;;5.70;85.00;;;;;;5035840;28;20440;-86
2022/01/18 12:23:10;;;;;;;56.58;30.23;;;5.70;84.90;;;;;;5035021;28;20045;-86
2022/01/18 12:25:40;;;;;;;53.33;30.52;;;5.80;84.90;;;;;;5035268;28;20063;-86
2022/01/18 12:28:48;;;;;;;56.95;30.58;;;5.80;84.80;;;;;;5030064;28;20045;-86
2022/01/18 12:34:28;;;;;;;54.40;30.50;;;5.90;84.80;;;;;;5012269;28;20042;-86
2022/01/18 12:37:20;;;;;;;51.33;30.75;;;5.90;84.70;;;;;;5012748;28;20053;-86
2022/01/18 12:39:57;;;;;;;56.50;30.20;;;5.90;84.70;;;;;;5006728;28;20100;-85
2022/01/18 12:45:16;;;;;;;54.60;28.92;;;6.00;84.70;;;;;;5012252;28;20053;-87
2022/01/18 12:47:48;;;;;;;58.10;31.42;;;6.00;84.70;;;;;;5012283;28;20058;-86
2022/01/18 12:50:23;;;;;;;61.67;28.83;;;6.00;84.70;;;;;;5012593;28;20465;-87
2022/01/18 12:52:56;;;;;;;51.83;30.13;;;6.10;84.70;;;;;;4997630;28;20045;-87
2022/01/18 12:55:55;;;;;;;52.45;28.52;;;6.10;84.70;;;;;;5012618;28;20061;-86
2022/01/18 12:58:38;;;;;;;52.08;28.75;;;6.20;84.70;;;;;;5010381;28;20445;-87
2022/01/18 13:01:27;;;;;;;46.60;27.52;;;6.20;84.70;;;;;;5011301;28;20054;-86
2022/01/18 13:03:56;;;;;;;55.55;28.45;;;6.20;84.60;;;;;;4981982;28;20134;-88
2022/01/18 13:06:26;;;;;;;54.90;29.17;;;6.30;84.60;;;;;;5010821;28;20137;-86
2022/01/18 13:09:02;;;;;;;55.53;29.00;;;6.30;84.60;;;;;;5011552;28;20058;-87
2022/01/18 13:11:38;;;;;;;53.70;28.73;;;6.30;84.50;;;;;;5019962;28;20076;-86
2022/01/18 13:14:10;;;;;;;59.50;27.10;;;6.40;84.50;;;;;;5034372;28;20038;-87
2022/01/18 13:27:44;;;;;;;44.78;26.77;;;6.60;84.50;;;;;;5033934;28;20049;-85
2022/01/18 13:30:22;;;;;;;48.63;26.48;;;6.60;84.50;;;;;;5033417;28;20388;-85
2022/01/18 13:32:51;;;;;;;49.38;27.83;;;6.70;84.40;;;;;;5034334;28;20041;-85
2022/01/18 13:35:24;;;;;;;47.72;26.65;;;6.80;84.40;;;;;;5035797;28;20041;-86
2022/01/18 13:37:57;;;;;;;55.40;27.08;;;6.80;84.30;;;;;;5034331;28;20164;-85
2022/01/18 13:40:26;;;;;;;48.20;25.52;;;6.90;84.30;;;;;;5034273;28;20422;-85
2022/01/18 13:43:06;;;;;;;49.58;27.13;;;6.90;84.20;;;;;;5031730;28;20071;-85
2022/01/18 13:45:38;;;;;;;56.08;28.08;;;6.90;84.20;;;;;;5033742;28;20049;-86
2022/01/18 13:48:08;;;;;;;56.60;26.65;;;6.90;84.10;;;;;;5032903;28;20136;-85
2022/01/18 13:50:53;;;;;;;55.33;27.15;;;7.00;84.00;;;;;;5034040;28;20041;-85
2022/01/18 13:53:30;;;;;;;49.63;25.88;;;7.00;84.00;;;;;;5034011;28;20053;-85
2022/01/18 13:55:57;;;;;;;49.25;26.50;;;7.10;83.90;;;;;;5033959;28;20500;-86
2022/01/18 13:58:30;;;;;;;53.50;26.85;;;7.10;83.80;;;;;;5033964;28;20053;-86
2022/01/18 14:01:09;;;;;;;50.53;26.52;;;7.20;83.70;;;;;;5031592;28;20049;-86
2022/01/18 14:03:43;;;;;;;52.28;27.05;;;7.20;83.60;;;;;;5035189;28;20089;-86
2022/01/18 14:06:13;;;;;;;54.50;28.55;;;7.20;83.50;;;;;;5033732;28;20042;-85
2022/01/18 14:08:54;;;;;;;47.03;26.83;;;7.20;83.40;;;;;;5033636;28;20056;-85
2022/01/18 14:11:29;;;;;;;52.15;26.98;;;7.20;83.30;;;;;;5031107;28;20053;-85
2022/01/18 14:13:56;;;;;;;50.58;25.83;;;7.20;83.20;;;;;;5032463;28;20052;-85
2022/01/18 14:16:49;;;;;;;54.03;26.95;;;7.20;83.20;;;;;;5032706;28;20103;-85
2022/01/18 14:19:33;;;;;;;52.65;25.17;;;7.20;83.10;;;;;;5040077;28;20421;-85
2022/01/18 14:22:03;;;;;;;44.90;25.77;;;7.30;83.10;;;;;;5032352;28;20128;-85
2022/01/18 14:24:36;;;;;;;54.15;25.30;;;7.30;83.00;;;;;;5033442;28;20048;-85
2022/01/18 14:27:06;;;;;;;;;;;7.30;82.90;;;;;;5033667;28;20096;-85
2022/01/18 14:29:42;;;;;;;46.83;25.05;;;7.30;82.90;;;;;;5032937;28;20345;-86